createdAt,value
2019-04-10T00:00:45.999Z,99.90
2019-04-10T00:03:25.810Z,99.90
2019-04-10T00:05:47.850Z,99.90
2019-04-10T00:08:17.976Z,99.90
2019-04-10T00:10:48.004Z,99.90
2019-04-10T00:13:18.419Z,99.90
2019-04-10T00:15:48.647Z,99.90
2019-04-10T00:18:18.596Z,99.90
2019-04-10T00:20:47.688Z,99.90
2019-04-10T00:23:17.396Z,99.90
2019-04-10T00:25:47.087Z,99.90
2019-04-10T00:28:17.073Z,99.90
2019-04-10T00:30:46.656Z,99.90
2019-04-10T00:33:16.611Z,99.90
2019-04-10T00:35:46.325Z,99.90
2019-04-10T00:38:15.738Z,99.90
2019-04-10T00:40:45.801Z,99.90
2019-04-10T00:43:15.397Z,99.90
2019-04-10T00:45:44.190Z,99.90
2019-04-10T00:48:13.541Z,99.90
2019-04-10T00:50:42.613Z,99.90
2019-04-10T00:53:12.740Z,99.90
2019-04-10T00:55:42.253Z,99.90
2019-04-10T00:58:12.103Z,99.90
2019-04-10T01:00:41.357Z,99.90
2019-04-10T01:03:12.130Z,99.90
2019-04-10T01:05:41.666Z,99.90
2019-04-10T01:08:11.344Z,99.90
2019-04-10T01:10:40.233Z,99.90
2019-04-10T01:13:10.341Z,99.90
2019-04-10T01:15:39.537Z,99.90
2019-04-10T01:18:08.520Z,99.90
2019-04-10T01:20:37.730Z,99.90
2019-04-10T01:23:07.799Z,99.90
2019-04-10T01:25:37.113Z,99.90
2019-04-10T01:28:06.760Z,99.90
2019-04-10T01:30:36.617Z,99.90
2019-04-10T01:33:06.193Z,99.90
2019-04-10T01:35:35.306Z,99.90
2019-04-10T01:38:06.124Z,99.90
2019-04-10T01:40:35.273Z,99.90
2019-04-10T01:43:09.713Z,99.90
2019-04-10T01:45:35.655Z,99.90
2019-04-10T01:48:05.931Z,99.90
2019-04-10T01:50:35.412Z,99.90
2019-04-10T01:53:04.367Z,99.90
2019-04-10T01:55:34.193Z,99.90
2019-04-10T01:58:05.925Z,99.90
2019-04-10T02:00:35.562Z,99.90
2019-04-10T02:03:05.583Z,99.90
2019-04-10T02:05:34.663Z,99.90
2019-04-10T02:08:08.968Z,99.90
2019-04-10T02:10:34.703Z,99.90
2019-04-10T02:13:03.569Z,99.90
2019-04-10T02:15:32.434Z,99.90
2019-04-10T02:18:01.580Z,99.90
2019-04-10T02:20:31.314Z,99.90
2019-04-10T02:23:01.709Z,99.90
2019-04-10T02:25:31.038Z,99.90
2019-04-10T02:27:59.974Z,99.90
2019-04-10T02:30:30.338Z,99.90
2019-04-10T02:32:59.811Z,99.90
2019-04-10T02:35:29.740Z,99.90
2019-04-10T02:38:18.657Z,99.90
2019-04-10T02:40:31.011Z,99.90
2019-04-10T02:43:00.788Z,99.90
2019-04-10T02:45:30.351Z,99.90
2019-04-10T02:47:59.489Z,99.90
2019-04-10T02:50:29.400Z,99.90
2019-04-10T02:52:59.251Z,99.90
2019-04-10T02:55:29.125Z,99.90
2019-04-10T02:58:00.253Z,99.90
2019-04-10T03:00:30.369Z,99.90
2019-04-10T03:02:59.547Z,99.90
2019-04-10T03:05:30.284Z,99.90
2019-04-10T03:08:00.270Z,99.90
2019-04-10T03:10:40.469Z,99.90
2019-04-10T03:13:00.876Z,99.90
2019-04-10T03:15:31.322Z,99.90
2019-04-10T03:18:00.785Z,99.90
2019-04-10T03:20:30.258Z,99.90
2019-04-10T03:22:59.206Z,99.90
2019-04-10T03:25:28.865Z,99.90
2019-04-10T03:27:58.887Z,99.90
2019-04-10T03:30:29.486Z,99.90
2019-04-10T03:33:29.851Z,99.90
2019-04-10T03:35:57.511Z,99.90
2019-04-10T03:38:26.324Z,99.90
2019-04-10T03:40:55.576Z,99.90
2019-04-10T03:43:25.824Z,99.90
2019-04-10T03:45:55.190Z,99.90
2019-04-10T03:48:25.100Z,99.90
2019-04-10T03:50:54.291Z,99.90
2019-04-10T03:53:24.541Z,99.90
2019-04-10T03:55:53.843Z,99.90
2019-04-10T03:58:23.121Z,99.90
2019-04-10T04:00:52.232Z,99.90
2019-04-10T04:03:21.422Z,99.90
2019-04-10T04:05:51.060Z,99.90
2019-04-10T04:08:21.461Z,99.90
2019-04-10T04:10:51.315Z,99.90
2019-04-10T04:13:20.290Z,99.90
2019-04-10T04:15:50.600Z,99.90
2019-04-10T04:18:19.999Z,99.90
2019-04-10T04:20:49.110Z,99.90
2019-04-10T04:23:19.409Z,99.90
2019-04-10T04:25:48.716Z,99.90
2019-04-10T04:28:17.639Z,99.90
2019-04-10T04:30:46.747Z,99.90
2019-04-10T04:33:15.549Z,99.90
2019-04-10T04:35:44.525Z,99.90
2019-04-10T04:38:13.486Z,99.90
2019-04-10T04:40:42.546Z,99.90
2019-04-10T04:43:12.482Z,99.90
2019-04-10T04:45:42.243Z,99.90
2019-04-10T04:48:11.215Z,99.90
2019-04-10T04:50:41.533Z,99.90
2019-04-10T04:53:10.792Z,99.90
2019-04-10T04:55:39.800Z,99.90
2019-04-10T04:58:09.707Z,99.90
2019-04-10T05:00:39.592Z,99.90
2019-04-10T05:03:09.908Z,99.90
2019-04-10T05:05:39.506Z,99.90
2019-04-10T05:08:08.493Z,99.90
2019-04-10T05:10:38.189Z,99.90
2019-04-10T05:13:08.137Z,99.90
2019-04-10T05:15:37.454Z,99.90
2019-04-10T05:18:06.389Z,99.90
2019-04-10T05:20:43.936Z,99.90
2019-04-10T05:23:06.245Z,99.90
2019-04-10T05:25:35.995Z,99.90
2019-04-10T05:28:05.884Z,99.90
2019-04-10T05:30:35.677Z,99.90
2019-04-10T05:33:04.782Z,99.90
2019-04-10T05:35:35.001Z,99.90
2019-04-10T05:38:04.842Z,99.90
2019-04-10T05:40:34.672Z,99.90
2019-04-10T05:43:03.754Z,99.90
2019-04-10T05:45:33.883Z,99.90
2019-04-10T05:48:03.319Z,99.90
2019-04-10T05:50:32.466Z,99.90
2019-04-10T05:53:02.330Z,99.90
2019-04-10T05:55:31.447Z,99.90
2019-04-10T05:58:01.595Z,99.90
2019-04-10T06:00:30.742Z,99.90
2019-04-10T06:03:00.443Z,99.90
2019-04-10T06:05:29.917Z,99.90
2019-04-10T06:07:59.379Z,99.90
2019-04-10T06:10:28.711Z,99.90
2019-04-10T06:12:58.421Z,99.90
2019-04-10T06:15:28.644Z,99.90
2019-04-10T06:17:58.738Z,99.90
2019-04-10T06:20:27.686Z,99.90
2019-04-10T06:22:57.366Z,99.90
2019-04-10T06:25:28.453Z,99.90
2019-04-10T06:27:57.182Z,99.90
2019-04-10T06:30:26.100Z,99.90
2019-04-10T06:32:55.742Z,99.90
2019-04-10T06:35:26.053Z,99.90
2019-04-10T06:37:56.597Z,99.90
2019-04-10T06:40:27.469Z,99.90
2019-04-10T06:42:57.677Z,99.90
2019-04-10T06:45:28.019Z,99.90
2019-04-10T06:47:56.933Z,99.90
2019-04-10T06:50:26.555Z,99.90
2019-04-10T06:52:56.873Z,99.90
2019-04-10T06:55:26.353Z,99.90
2019-04-10T06:57:57.701Z,99.90
2019-04-10T07:00:26.156Z,99.90
2019-04-10T07:02:56.606Z,99.90
2019-04-10T07:05:37.171Z,99.90
2019-04-10T07:08:05.754Z,99.90
2019-04-10T07:10:34.825Z,99.90
2019-04-10T07:12:59.646Z,99.90
2019-04-10T07:15:29.421Z,99.90
2019-04-10T07:17:58.861Z,99.90
2019-04-10T07:20:29.575Z,99.90
2019-04-10T07:22:59.534Z,99.90
2019-04-10T07:25:29.877Z,99.90
2019-04-10T07:28:01.176Z,99.90
2019-04-10T07:30:29.934Z,99.90
2019-04-10T07:32:59.302Z,99.90
2019-04-10T07:35:32.871Z,99.90
2019-04-10T07:37:59.678Z,99.90
2019-04-10T07:40:33.082Z,99.90
2019-04-10T07:42:59.512Z,99.90
2019-04-10T07:45:28.810Z,99.90
2019-04-10T07:47:58.148Z,99.90
2019-04-10T07:50:28.177Z,99.90
2019-04-10T07:52:57.651Z,99.90
2019-04-10T07:55:27.086Z,99.90
2019-04-10T07:57:57.212Z,99.90
2019-04-10T08:00:26.979Z,99.90
2019-04-10T08:02:57.503Z,99.90
2019-04-10T08:05:27.193Z,99.90
2019-04-10T08:07:57.454Z,99.90
2019-04-10T08:10:26.582Z,99.90
2019-04-10T08:12:56.060Z,99.90
2019-04-10T08:15:25.206Z,99.90
2019-04-10T08:17:54.194Z,99.90
2019-04-10T08:20:24.003Z,99.90
2019-04-10T08:22:53.365Z,99.90
2019-04-10T08:25:22.781Z,99.90
2019-04-10T08:27:52.255Z,99.90
2019-04-10T08:30:21.655Z,99.90
2019-04-10T08:32:57.991Z,99.90
2019-04-10T08:35:21.689Z,99.90
2019-04-10T08:37:50.897Z,99.90
2019-04-10T08:40:21.154Z,99.90
2019-04-10T08:42:51.309Z,99.90
2019-04-10T08:45:21.070Z,99.90
2019-04-10T08:47:50.841Z,99.90
2019-04-10T08:50:19.879Z,99.90
2019-04-10T08:52:49.166Z,99.90
2019-04-10T08:55:18.001Z,99.90
2019-04-10T08:57:47.083Z,99.90
2019-04-10T09:00:16.584Z,99.90
2019-04-10T09:02:46.451Z,99.90
2019-04-10T09:05:15.916Z,99.90
2019-04-10T09:07:44.742Z,99.90
2019-04-10T09:10:14.354Z,99.90
2019-04-10T09:12:43.453Z,99.90
2019-04-10T09:15:13.877Z,99.90
2019-04-10T09:17:43.808Z,99.90
2019-04-10T09:20:14.211Z,99.90
2019-04-10T09:23:07.382Z,99.90
2019-04-10T09:25:16.095Z,99.90
2019-04-10T09:27:46.286Z,99.90
2019-04-10T09:30:16.416Z,99.90
2019-04-10T09:32:46.433Z,99.90
2019-04-10T09:35:16.389Z,99.80
2019-04-10T09:37:46.289Z,99.30
2019-04-10T09:40:16.264Z,96.60
2019-04-10T09:42:45.983Z,99.40
2019-04-10T09:45:15.875Z,98.00
2019-04-10T09:47:45.741Z,97.10
2019-04-10T09:50:15.364Z,96.60
2019-04-10T09:52:44.301Z,97.60
2019-04-10T09:55:13.877Z,97.00
2019-04-10T09:57:43.189Z,97.30
2019-04-10T10:00:12.448Z,97.50
2019-04-10T10:02:41.395Z,97.40
2019-04-10T10:05:11.083Z,98.30
2019-04-10T10:07:41.034Z,98.60
2019-04-10T10:10:11.021Z,98.40
2019-04-10T10:12:40.788Z,99.90
2019-04-10T10:15:11.399Z,98.30
2019-04-10T10:17:41.201Z,99.30
2019-04-10T10:20:11.619Z,99.70
2019-04-10T10:22:41.307Z,98.90
2019-04-10T10:25:11.201Z,97.60
2019-04-10T10:27:40.780Z,97.20
2019-04-10T10:30:11.517Z,96.20
2019-04-10T10:32:42.166Z,95.80
2019-04-10T10:35:12.094Z,95.30
2019-04-10T10:37:41.394Z,95.10
2019-04-10T10:40:11.946Z,92.90
2019-04-10T10:42:42.161Z,95.10
2019-04-10T10:45:12.469Z,93.80
2019-04-10T10:47:41.535Z,93.70
2019-04-10T10:50:11.061Z,93.70
2019-04-10T10:52:39.960Z,93.40
2019-04-10T10:55:09.636Z,96.00
2019-04-10T10:57:39.623Z,96.20
2019-04-10T11:00:11.930Z,94.20
2019-04-10T11:02:39.870Z,95.50
2019-04-10T11:05:10.632Z,96.20
2019-04-10T11:07:40.545Z,96.10
2019-04-10T11:10:10.668Z,96.40
2019-04-10T11:12:39.592Z,97.70
2019-04-10T11:15:09.984Z,97.70
2019-04-10T11:17:40.392Z,97.00
2019-04-10T11:20:12.650Z,97.10
2019-04-10T11:22:42.413Z,97.00
2019-04-10T11:25:12.258Z,97.50
2019-04-10T11:27:42.180Z,95.40
2019-04-10T11:30:12.546Z,93.30
2019-04-10T11:32:42.351Z,93.90
2019-04-10T11:35:12.955Z,95.30
2019-04-10T11:37:45.455Z,95.20
2019-04-10T11:40:15.804Z,95.90
2019-04-10T11:42:44.870Z,96.30
2019-04-10T11:45:17.040Z,96.20
2019-04-10T11:47:47.565Z,95.80
2019-04-10T11:50:18.748Z,95.30
2019-04-10T11:52:53.179Z,95.80
2019-04-10T11:55:21.225Z,96.70
2019-04-10T11:57:51.556Z,96.20
2019-04-10T12:00:45.347Z,96.90
2019-04-10T12:03:10.209Z,92.60
2019-04-10T12:05:42.038Z,93.00
2019-04-10T12:13:16.990Z,91.90
2019-04-10T12:15:46.342Z,92.50
2019-04-10T12:18:16.108Z,93.80
2019-04-10T12:20:45.284Z,93.30
2019-04-10T12:23:14.385Z,93.40
2019-04-10T12:25:43.316Z,95.70
2019-04-10T12:28:12.229Z,93.80
2019-04-10T12:30:41.693Z,94.30
2019-04-10T12:33:11.727Z,91.30
2019-04-10T12:35:40.794Z,90.20
2019-04-10T12:38:13.019Z,85.90
2019-04-10T12:40:42.523Z,89.10
2019-04-10T12:43:12.676Z,90.40
2019-04-10T12:45:42.373Z,85.20
2019-04-10T12:48:12.495Z,85.50
2019-04-10T12:50:41.652Z,87.00
2019-04-10T12:53:11.581Z,81.10
2019-04-10T12:55:41.826Z,84.10
2019-04-10T12:58:13.597Z,82.70
2019-04-10T13:00:42.810Z,88.10
2019-04-10T13:03:12.736Z,82.60
2019-04-10T13:05:42.957Z,84.40
2019-04-10T13:08:21.126Z,81.10
2019-04-10T13:10:44.010Z,80.00
2019-04-10T13:13:13.694Z,78.80
2019-04-10T13:15:43.569Z,80.70
2019-04-10T13:18:12.750Z,78.90
2019-04-10T13:20:42.375Z,80.90
2019-04-10T13:23:13.885Z,77.40
2019-04-10T13:25:42.773Z,80.90
2019-04-10T13:28:13.223Z,78.70
2019-04-10T13:30:49.720Z,78.30
2019-04-10T13:33:14.021Z,76.70
2019-04-10T13:35:44.243Z,83.00
2019-04-10T13:38:23.116Z,82.90
2019-04-10T13:40:45.870Z,80.80
2019-04-10T13:43:15.958Z,78.20
2019-04-10T13:45:45.875Z,79.10
2019-04-10T13:48:16.407Z,82.40
2019-04-10T13:50:46.539Z,78.00
2019-04-10T13:53:16.146Z,81.60
2019-04-10T13:55:44.965Z,78.00
2019-04-10T13:58:15.091Z,80.90
2019-04-10T14:00:45.134Z,80.40
2019-04-10T14:03:14.935Z,79.50
2019-04-10T14:05:45.058Z,80.70
2019-04-10T14:08:16.574Z,80.50
2019-04-10T14:10:46.819Z,82.90
2019-04-10T14:13:17.778Z,81.20
2019-04-10T14:15:46.774Z,82.40
2019-04-10T14:18:16.676Z,82.30
2019-04-10T14:20:46.132Z,78.80
2019-04-10T14:23:22.239Z,81.60
2019-04-10T14:25:58.198Z,80.00
2019-04-10T14:28:29.483Z,81.50
2019-04-10T14:31:02.066Z,79.40
2019-04-10T14:33:32.464Z,79.40
2019-04-10T14:36:03.344Z,82.80
2019-04-10T14:38:32.884Z,81.30
2019-04-10T14:41:03.294Z,79.10
2019-04-10T14:43:32.959Z,78.20
2019-04-10T14:46:02.659Z,80.70
2019-04-10T14:48:32.424Z,78.20
2019-04-10T14:51:01.295Z,78.00
2019-04-10T14:53:31.211Z,81.30
2019-04-10T14:56:00.398Z,78.70
2019-04-10T14:58:31.331Z,77.90
2019-04-10T15:01:02.661Z,79.40
2019-04-10T15:03:32.848Z,77.70
2019-04-10T15:06:02.577Z,77.20
2019-04-10T15:08:33.402Z,74.90
2019-04-10T15:11:02.539Z,76.70
2019-04-10T15:13:31.905Z,74.60
2019-04-10T15:16:01.350Z,73.70
2019-04-10T15:18:30.932Z,75.90
2019-04-10T15:21:00.701Z,70.70
2019-04-10T15:23:30.106Z,71.70
2019-04-10T15:25:59.755Z,71.50
2019-04-10T15:28:29.710Z,72.70
2019-04-10T15:31:01.309Z,72.20
2019-04-10T15:33:31.688Z,71.90
2019-04-10T15:36:01.935Z,72.00
2019-04-10T15:38:31.380Z,72.20
2019-04-10T15:41:00.917Z,74.90
2019-04-10T15:43:31.077Z,74.00
2019-04-10T15:46:00.294Z,73.40
2019-04-10T15:48:30.003Z,73.50
2019-04-10T15:51:00.092Z,75.20
2019-04-10T15:53:29.576Z,74.80
2019-04-10T15:55:58.478Z,73.00
2019-04-10T15:58:27.859Z,70.80
2019-04-10T16:00:59.392Z,70.30
2019-04-10T16:03:28.770Z,69.30
2019-04-10T16:05:58.498Z,70.30
2019-04-10T16:08:28.392Z,69.50
2019-04-10T16:11:05.954Z,67.80
2019-04-10T16:13:48.503Z,70.70
2019-04-10T16:16:49.339Z,70.00
2019-04-10T16:19:54.331Z,72.30
2019-04-10T16:22:27.948Z,69.80
2019-04-10T16:24:59.243Z,70.00
2019-04-10T16:27:28.674Z,69.80
2019-04-10T16:29:58.933Z,72.80
2019-04-10T16:32:29.707Z,72.40
2019-04-10T16:34:58.963Z,73.50
2019-04-10T16:37:28.205Z,74.70
2019-04-10T16:40:03.465Z,74.50
2019-04-10T16:42:28.565Z,74.30
2019-04-10T16:44:57.935Z,73.20
2019-04-10T16:47:28.177Z,75.70
2019-04-10T16:49:57.253Z,78.30
2019-04-10T16:52:27.144Z,74.90
2019-04-10T16:54:57.593Z,75.90
2019-04-10T16:57:26.938Z,76.40
2019-04-10T16:59:56.421Z,77.10
2019-04-10T17:02:26.559Z,77.30
2019-04-10T17:04:56.406Z,77.40
2019-04-10T17:07:25.386Z,77.20
2019-04-10T17:09:54.915Z,76.60
2019-04-10T17:12:25.374Z,76.50
2019-04-10T17:14:55.541Z,76.20
2019-04-10T17:17:25.069Z,76.50
2019-04-10T17:19:57.241Z,75.30
2019-04-10T17:22:32.395Z,76.40
2019-04-10T17:24:56.431Z,76.90
2019-04-10T17:27:25.939Z,77.10
2019-04-10T17:29:56.653Z,78.00
2019-04-10T17:32:26.997Z,79.40
2019-04-10T17:34:57.100Z,78.70
2019-04-10T17:37:26.761Z,79.10
2019-04-10T17:39:56.057Z,79.10
2019-04-10T17:42:25.225Z,80.90
2019-04-10T17:44:54.697Z,81.60
2019-04-10T17:47:24.950Z,82.40
2019-04-10T17:49:56.066Z,84.10
2019-04-10T17:52:27.145Z,84.70
2019-04-10T17:54:56.819Z,85.00
2019-04-10T17:57:35.274Z,85.40
2019-04-10T17:59:58.645Z,87.70
2019-04-10T18:02:27.899Z,88.00
2019-04-10T18:04:58.023Z,87.50
2019-04-10T18:07:28.149Z,88.60
2019-04-10T18:09:58.154Z,90.50
2019-04-10T18:12:27.939Z,91.50
2019-04-10T18:14:58.103Z,91.70
2019-04-10T18:17:29.125Z,91.30
2019-04-10T18:19:59.089Z,91.60
2019-04-10T18:22:29.476Z,92.00
2019-04-10T18:25:00.057Z,92.20
2019-04-10T18:27:30.218Z,92.70
2019-04-10T18:30:00.187Z,91.90
2019-04-10T18:32:31.805Z,91.70
2019-04-10T18:35:00.682Z,92.10
2019-04-10T18:37:31.005Z,92.20
2019-04-10T18:40:01.030Z,92.80
2019-04-10T18:42:30.876Z,93.10
2019-04-10T18:44:59.920Z,93.90
2019-04-10T18:47:32.023Z,94.00
2019-04-10T18:50:00.940Z,95.00
2019-04-10T18:52:31.676Z,94.80
2019-04-10T18:55:00.873Z,95.00
2019-04-10T18:57:33.465Z,95.70
2019-04-10T19:00:18.970Z,95.70
2019-04-10T19:03:07.544Z,95.90
2019-04-10T19:05:41.523Z,96.90
2019-04-10T19:08:12.801Z,96.80
2019-04-10T19:10:41.134Z,97.00
2019-04-10T19:13:10.410Z,97.70
2019-04-10T19:15:40.544Z,97.90
2019-04-10T19:18:11.192Z,98.00
2019-04-10T19:20:40.712Z,98.40
2019-04-10T19:23:10.026Z,98.40
2019-04-10T19:25:40.679Z,99.20
2019-04-10T19:28:10.766Z,99.10
2019-04-10T19:30:45.771Z,99.10
2019-04-10T19:33:16.143Z,99.40
2019-04-10T19:35:45.541Z,99.70
2019-04-10T19:38:14.821Z,99.90
2019-04-10T19:40:45.733Z,99.80
2019-04-10T19:43:15.923Z,99.90
2019-04-10T19:45:45.371Z,99.90
2019-04-10T19:48:15.158Z,99.90
2019-04-10T19:50:45.629Z,99.90
2019-04-10T19:53:15.136Z,99.90
2019-04-10T19:55:44.399Z,99.90
2019-04-10T19:58:14.198Z,99.90
2019-04-10T20:00:44.375Z,99.90
2019-04-10T20:03:13.320Z,99.90
2019-04-10T20:05:42.345Z,99.90
2019-04-10T20:08:13.239Z,99.90
2019-04-10T20:10:43.620Z,99.90
2019-04-10T20:13:13.082Z,99.90
2019-04-10T20:15:42.624Z,99.90
2019-04-10T20:18:12.621Z,99.90
2019-04-10T20:20:42.100Z,99.90
2019-04-10T20:23:12.591Z,99.90
2019-04-10T20:25:42.891Z,99.90
2019-04-10T20:28:12.563Z,99.90
2019-04-10T20:30:42.475Z,99.90
2019-04-10T20:33:11.549Z,99.90
2019-04-10T20:35:40.695Z,99.90
2019-04-10T20:38:11.330Z,99.90
2019-04-10T20:40:42.670Z,99.90
2019-04-10T20:43:12.964Z,99.90
2019-04-10T20:45:42.250Z,99.90
2019-04-10T20:48:12.053Z,99.90
2019-04-10T20:50:41.777Z,99.90
2019-04-10T20:53:11.815Z,99.90
2019-04-10T20:55:41.912Z,99.90
2019-04-10T20:58:11.371Z,99.90
2019-04-10T21:00:41.552Z,99.90
2019-04-10T21:03:13.507Z,99.90
2019-04-10T21:05:44.579Z,99.90
2019-04-10T21:08:14.107Z,99.90
2019-04-10T21:10:45.102Z,99.90
2019-04-10T21:13:15.021Z,99.90
2019-04-10T21:15:44.435Z,99.90
2019-04-10T21:18:13.600Z,99.90
2019-04-10T21:20:43.183Z,99.90
2019-04-10T21:23:13.199Z,99.90
2019-04-10T21:25:43.546Z,99.90
2019-04-10T21:28:14.065Z,99.90
2019-04-10T21:31:01.018Z,99.90
2019-04-10T21:34:05.470Z,99.90
2019-04-10T21:36:37.069Z,99.90
2019-04-10T21:39:08.006Z,99.90
2019-04-10T21:41:36.971Z,99.90
2019-04-10T21:44:06.464Z,99.90
2019-04-10T21:46:36.712Z,99.90
2019-04-10T21:49:06.136Z,99.90
2019-04-10T21:51:35.352Z,99.90
2019-04-10T21:54:04.619Z,99.90
2019-04-10T21:56:33.739Z,99.90
2019-04-10T21:59:03.222Z,99.90
2019-04-10T22:01:32.577Z,99.90
2019-04-10T22:04:02.721Z,99.90
2019-04-10T22:06:51.463Z,99.90
2019-04-10T22:09:39.081Z,99.90
2019-04-10T22:12:23.722Z,99.90
2019-04-10T22:14:45.966Z,99.90
2019-04-10T22:17:17.057Z,99.90
2019-04-10T22:19:47.371Z,99.90
2019-04-10T22:22:18.060Z,99.90
2019-04-10T22:24:48.504Z,99.90
2019-04-10T22:27:19.036Z,99.90
2019-04-10T22:29:48.643Z,99.90
2019-04-10T22:32:18.657Z,99.90
2019-04-10T22:34:47.988Z,99.90
2019-04-10T22:37:17.447Z,99.90
2019-04-10T22:39:46.806Z,99.90
2019-04-10T22:42:16.893Z,99.90
2019-04-10T22:44:47.158Z,99.90
2019-04-10T22:47:17.464Z,99.90
2019-04-10T22:49:47.187Z,99.90
2019-04-10T22:52:17.589Z,99.90
2019-04-10T22:54:47.160Z,99.90
2019-04-10T22:57:16.798Z,99.90
2019-04-10T22:59:46.795Z,99.90
2019-04-10T23:02:16.534Z,99.90
2019-04-10T23:04:45.736Z,99.90
2019-04-10T23:07:14.586Z,99.90
2019-04-10T23:09:44.446Z,99.90
2019-04-10T23:12:14.160Z,99.90
2019-04-10T23:14:44.933Z,99.90
2019-04-10T23:17:14.688Z,99.90
2019-04-10T23:19:44.581Z,99.90
2019-04-10T23:22:13.864Z,99.90
2019-04-10T23:24:43.488Z,99.90
2019-04-10T23:27:13.388Z,99.90
2019-04-10T23:29:44.286Z,99.90
2019-04-10T23:32:13.475Z,99.90
2019-04-10T23:34:43.084Z,99.90
2019-04-10T23:37:12.931Z,99.90
2019-04-10T23:39:42.261Z,99.90
2019-04-10T23:42:12.759Z,99.90
2019-04-10T23:44:42.929Z,99.90
2019-04-10T23:47:12.183Z,99.90
2019-04-10T23:49:42.185Z,99.90
2019-04-10T23:52:11.795Z,99.90
2019-04-10T23:54:41.607Z,99.90
2019-04-10T23:57:11.573Z,99.90
2019-04-10T23:59:40.999Z,99.90
